sensor_id;sensor_type;location;lat;lon;timestamp;temperature;humidity
48488;DHT22;34289;48.572;13.378;2023-02-28T00:00:24;-1.60;99.90
48488;DHT22;34289;48.572;13.378;2023-02-28T00:02:50;-1.80;99.90
48488;DHT22;34289;48.572;13.378;2023-02-28T00:05:18;-1.90;99.90
48488;DHT22;34289;48.572;13.378;2023-02-28T00:07:45;-2.00;99.90
48488;DHT22;34289;48.572;13.378;2023-02-28T00:10:13;-2.20;99.90
48488;DHT22;34289;48.572;13.378;2023-02-28T00:12:39;-2.30;99.90
48488;DHT22;34289;48.572;13.378;2023-02-28T00:15:11;-2.40;99.90
48488;DHT22;34289;48.572;13.378;2023-02-28T00:17:37;-2.40;99.90
48488;DHT22;34289;48.572;13.378;2023-02-28T00:20:04;-2.70;99.90
48488;DHT22;34289;48.572;13.378;2023-02-28T00:22:33;-2.70;99.90
48488;DHT22;34289;48.572;13.378;2023-02-28T00:24:59;-2.70;99.90
48488;DHT22;34289;48.572;13.378;2023-02-28T00:27:25;-2.70;99.90
48488;DHT22;34289;48.572;13.378;2023-02-28T00:29:50;-2.70;99.90
48488;DHT22;34289;48.572;13.378;2023-02-28T00:32:16;-2.70;99.90
48488;DHT22;34289;48.572;13.378;2023-02-28T00:34:43;-2.60;99.90
48488;DHT22;34289;48.572;13.378;2023-02-28T00:37:09;-2.50;99.90
48488;DHT22;34289;48.572;13.378;2023-02-28T00:39:37;-2.60;99.90
48488;DHT22;34289;48.572;13.378;2023-02-28T00:42:04;-3.00;99.90
48488;DHT22;34289;48.572;13.378;2023-02-28T00:44:30;-2.90;99.90
48488;DHT22;34289;48.572;13.378;2023-02-28T00:46:56;-2.90;99.90
48488;DHT22;34289;48.572;13.378;2023-02-28T00:49:22;-2.80;99.90
48488;DHT22;34289;48.572;13.378;2023-02-28T00:51:48;-2.90;99.90
48488;DHT22;34289;48.572;13.378;2023-02-28T00:54:14;-2.50;99.90
48488;DHT22;34289;48.572;13.378;2023-02-28T00:56:40;-2.20;99.90
48488;DHT22;34289;48.572;13.378;2023-02-28T00:59:05;-2.00;99.90
48488;DHT22;34289;48.572;13.378;2023-02-28T01:01:31;-2.10;99.90
48488;DHT22;34289;48.572;13.378;2023-02-28T01:03:57;-1.90;99.90
48488;DHT22;34289;48.572;13.378;2023-02-28T01:06:22;0.50;99.90
48488;DHT22;34289;48.572;13.378;2023-02-28T01:08:49;-1.80;99.90
48488;DHT22;34289;48.572;13.378;2023-02-28T01:11:18;-1.60;99.90
48488;DHT22;34289;48.572;13.378;2023-02-28T01:13:44;-1.60;99.90
48488;DHT22;34289;48.572;13.378;2023-02-28T01:16:10;-1.60;99.90
48488;DHT22;34289;48.572;13.378;2023-02-28T01:18:37;-1.50;99.90
48488;DHT22;34289;48.572;13.378;2023-02-28T01:21:07;-1.50;99.90
48488;DHT22;34289;48.572;13.378;2023-02-28T01:23:34;-1.50;99.90
48488;DHT22;34289;48.572;13.378;2023-02-28T01:26:05;-1.50;99.90
48488;DHT22;34289;48.572;13.378;2023-02-28T01:28:31;-1.50;99.90
48488;DHT22;34289;48.572;13.378;2023-02-28T01:30:57;-1.40;99.90
48488;DHT22;34289;48.572;13.378;2023-02-28T01:33:22;-0.90;99.90
48488;DHT22;34289;48.572;13.378;2023-02-28T01:35:48;-1.50;99.90
48488;DHT22;34289;48.572;13.378;2023-02-28T01:38:14;-1.40;99.90
48488;DHT22;34289;48.572;13.378;2023-02-28T01:40:39;-1.50;99.90
48488;DHT22;34289;48.572;13.378;2023-02-28T01:43:20;-1.40;99.90
48488;DHT22;34289;48.572;13.378;2023-02-28T01:45:46;-1.60;99.90
48488;DHT22;34289;48.572;13.378;2023-02-28T01:48:11;-1.50;99.90
48488;DHT22;34289;48.572;13.378;2023-02-28T01:50:41;-1.40;99.90
48488;DHT22;34289;48.572;13.378;2023-02-28T01:53:14;-1.40;99.90
48488;DHT22;34289;48.572;13.378;2023-02-28T01:55:44;-1.50;99.90
48488;DHT22;34289;48.572;13.378;2023-02-28T01:58:12;-1.50;99.90
48488;DHT22;34289;48.572;13.378;2023-02-28T02:00:38;-1.50;99.90
48488;DHT22;34289;48.572;13.378;2023-02-28T02:03:08;-1.40;99.90
48488;DHT22;34289;48.572;13.378;2023-02-28T02:05:38;-1.50;99.90
48488;DHT22;34289;48.572;13.378;2023-02-28T02:08:12;-1.40;99.90
48488;DHT22;34289;48.572;13.378;2023-02-28T02:10:50;-1.40;99.90
48488;DHT22;34289;48.572;13.378;2023-02-28T02:19:49;-1.40;99.90
48488;DHT22;34289;48.572;13.378;2023-02-28T02:25:23;-1.40;99.90
48488;DHT22;34289;48.572;13.378;2023-02-28T02:33:43;-1.50;99.90
48488;DHT22;34289;48.572;13.378;2023-02-28T02:36:22;-1.50;99.90
48488;DHT22;34289;48.572;13.378;2023-02-28T02:39:08;-1.50;99.90
48488;DHT22;34289;48.572;13.378;2023-02-28T02:41:45;-1.60;99.90
48488;DHT22;34289;48.572;13.378;2023-02-28T02:44:36;-1.60;99.90
48488;DHT22;34289;48.572;13.378;2023-02-28T02:47:14;-1.50;99.90
48488;DHT22;34289;48.572;13.378;2023-02-28T02:49:45;-1.40;99.90
48488;DHT22;34289;48.572;13.378;2023-02-28T02:52:15;-1.40;99.90
48488;DHT22;34289;48.572;13.378;2023-02-28T02:54:45;-1.60;99.90
48488;DHT22;34289;48.572;13.378;2023-02-28T02:57:26;-1.40;99.90
48488;DHT22;34289;48.572;13.378;2023-02-28T02:59:54;-1.60;99.90
48488;DHT22;34289;48.572;13.378;2023-02-28T03:02:21;-1.50;99.90
48488;DHT22;34289;48.572;13.378;2023-02-28T03:04:56;-1.50;99.90
48488;DHT22;34289;48.572;13.378;2023-02-28T03:07:26;-1.60;99.90
48488;DHT22;34289;48.572;13.378;2023-02-28T03:09:54;-1.50;99.90
48488;DHT22;34289;48.572;13.378;2023-02-28T03:12:21;-1.50;99.90
48488;DHT22;34289;48.572;13.378;2023-02-28T03:23:13;-1.60;99.90
48488;DHT22;34289;48.572;13.378;2023-02-28T03:26:07;-1.60;99.90
48488;DHT22;34289;48.572;13.378;2023-02-28T03:28:48;-1.70;99.90
48488;DHT22;34289;48.572;13.378;2023-02-28T03:34:04;-1.70;99.90
48488;DHT22;34289;48.572;13.378;2023-02-28T03:36:35;-1.70;99.90
48488;DHT22;34289;48.572;13.378;2023-02-28T03:39:17;-1.60;99.90
48488;DHT22;34289;48.572;13.378;2023-02-28T03:41:50;-1.60;99.90
48488;DHT22;34289;48.572;13.378;2023-02-28T03:44:21;-1.60;99.90
48488;DHT22;34289;48.572;13.378;2023-02-28T03:49:27;-1.70;99.90
48488;DHT22;34289;48.572;13.378;2023-02-28T03:51:58;-1.70;99.90
48488;DHT22;34289;48.572;13.378;2023-02-28T03:54:31;-1.70;99.90
48488;DHT22;34289;48.572;13.378;2023-02-28T03:57:28;-1.70;99.90
48488;DHT22;34289;48.572;13.378;2023-02-28T04:00:08;-1.70;99.90
48488;DHT22;34289;48.572;13.378;2023-02-28T04:02:35;-1.70;99.90
48488;DHT22;34289;48.572;13.378;2023-02-28T04:05:01;-1.70;99.90
48488;DHT22;34289;48.572;13.378;2023-02-28T04:07:29;-1.70;99.90
48488;DHT22;34289;48.572;13.378;2023-02-28T04:09:56;-1.70;99.90
48488;DHT22;34289;48.572;13.378;2023-02-28T04:12:21;-1.70;99.90
48488;DHT22;34289;48.572;13.378;2023-02-28T04:14:49;-1.80;99.90
48488;DHT22;34289;48.572;13.378;2023-02-28T04:17:15;-1.80;99.90
48488;DHT22;34289;48.572;13.378;2023-02-28T04:19:40;0.10;99.90
48488;DHT22;34289;48.572;13.378;2023-02-28T04:22:07;-1.70;99.90
48488;DHT22;34289;48.572;13.378;2023-02-28T04:24:33;-1.70;99.90
48488;DHT22;34289;48.572;13.378;2023-02-28T04:26:59;-1.70;99.90
48488;DHT22;34289;48.572;13.378;2023-02-28T04:29:26;-1.70;99.90
48488;DHT22;34289;48.572;13.378;2023-02-28T04:31:53;-1.60;99.90
48488;DHT22;34289;48.572;13.378;2023-02-28T04:34:19;-1.70;99.90
48488;DHT22;34289;48.572;13.378;2023-02-28T04:36:46;-1.40;99.90
48488;DHT22;34289;48.572;13.378;2023-02-28T04:39:14;-1.80;99.90
48488;DHT22;34289;48.572;13.378;2023-02-28T04:41:40;-1.70;99.90
48488;DHT22;34289;48.572;13.378;2023-02-28T04:44:06;-1.70;99.90
48488;DHT22;34289;48.572;13.378;2023-02-28T04:46:31;-1.80;99.90
48488;DHT22;34289;48.572;13.378;2023-02-28T04:48:57;-1.80;99.90
48488;DHT22;34289;48.572;13.378;2023-02-28T04:51:24;-1.80;99.90
48488;DHT22;34289;48.572;13.378;2023-02-28T04:53:50;-1.80;99.90
48488;DHT22;34289;48.572;13.378;2023-02-28T04:56:17;-1.70;99.90
48488;DHT22;34289;48.572;13.378;2023-02-28T04:58:43;-1.80;99.90
48488;DHT22;34289;48.572;13.378;2023-02-28T05:01:24;-1.80;99.90
48488;DHT22;34289;48.572;13.378;2023-02-28T05:03:53;-1.80;99.90
48488;DHT22;34289;48.572;13.378;2023-02-28T05:06:19;-0.70;99.90
48488;DHT22;34289;48.572;13.378;2023-02-28T05:08:46;-1.70;99.90
48488;DHT22;34289;48.572;13.378;2023-02-28T05:11:29;-1.70;99.90
48488;DHT22;34289;48.572;13.378;2023-02-28T05:13:59;-1.70;99.90
48488;DHT22;34289;48.572;13.378;2023-02-28T05:16:24;-1.70;99.90
48488;DHT22;34289;48.572;13.378;2023-02-28T05:18:50;-1.80;99.90
48488;DHT22;34289;48.572;13.378;2023-02-28T05:21:32;-1.70;99.90
48488;DHT22;34289;48.572;13.378;2023-02-28T05:24:03;-1.80;99.90
48488;DHT22;34289;48.572;13.378;2023-02-28T05:26:29;-1.80;99.90
48488;DHT22;34289;48.572;13.378;2023-02-28T05:28:55;-1.90;99.90
48488;DHT22;34289;48.572;13.378;2023-02-28T05:31:22;-1.90;99.90
48488;DHT22;34289;48.572;13.378;2023-02-28T05:33:48;-1.90;99.90
48488;DHT22;34289;48.572;13.378;2023-02-28T05:36:13;-2.00;99.90
48488;DHT22;34289;48.572;13.378;2023-02-28T05:38:39;-2.00;99.90
48488;DHT22;34289;48.572;13.378;2023-02-28T05:41:07;-2.00;99.90
48488;DHT22;34289;48.572;13.378;2023-02-28T05:43:33;-1.90;99.90
48488;DHT22;34289;48.572;13.378;2023-02-28T05:46:02;-1.90;99.90
48488;DHT22;34289;48.572;13.378;2023-02-28T05:48:28;-2.00;99.90
48488;DHT22;34289;48.572;13.378;2023-02-28T05:50:53;-2.00;99.90
48488;DHT22;34289;48.572;13.378;2023-02-28T05:53:19;-1.90;99.90
48488;DHT22;34289;48.572;13.378;2023-02-28T05:55:44;-1.80;99.90
48488;DHT22;34289;48.572;13.378;2023-02-28T05:58:10;-1.80;99.90
48488;DHT22;34289;48.572;13.378;2023-02-28T06:00:35;-1.90;99.90
48488;DHT22;34289;48.572;13.378;2023-02-28T06:03:01;-1.80;99.90
48488;DHT22;34289;48.572;13.378;2023-02-28T06:05:27;-1.80;99.90
48488;DHT22;34289;48.572;13.378;2023-02-28T06:07:53;-1.80;99.90
48488;DHT22;34289;48.572;13.378;2023-02-28T06:10:19;-1.80;99.90
48488;DHT22;34289;48.572;13.378;2023-02-28T06:12:45;-1.70;99.90
48488;DHT22;34289;48.572;13.378;2023-02-28T06:15:14;-0.10;99.90
48488;DHT22;34289;48.572;13.378;2023-02-28T06:17:41;-1.80;99.90
48488;DHT22;34289;48.572;13.378;2023-02-28T06:20:08;-1.70;99.90
48488;DHT22;34289;48.572;13.378;2023-02-28T06:22:35;-1.70;99.90
48488;DHT22;34289;48.572;13.378;2023-02-28T06:25:01;-1.60;99.90
48488;DHT22;34289;48.572;13.378;2023-02-28T06:27:27;-1.60;99.90
48488;DHT22;34289;48.572;13.378;2023-02-28T06:29:55;-1.70;99.90
48488;DHT22;34289;48.572;13.378;2023-02-28T06:32:21;-1.60;99.90
48488;DHT22;34289;48.572;13.378;2023-02-28T06:34:47;-1.50;99.90
48488;DHT22;34289;48.572;13.378;2023-02-28T06:37:13;-1.40;99.90
48488;DHT22;34289;48.572;13.378;2023-02-28T06:39:38;-1.30;99.90
48488;DHT22;34289;48.572;13.378;2023-02-28T06:42:04;-1.10;99.90
48488;DHT22;34289;48.572;13.378;2023-02-28T06:44:30;-0.50;99.90
48488;DHT22;34289;48.572;13.378;2023-02-28T06:47:01;-0.80;99.90
48488;DHT22;34289;48.572;13.378;2023-02-28T06:49:29;-0.90;99.90
48488;DHT22;34289;48.572;13.378;2023-02-28T06:51:55;-0.70;99.90
48488;DHT22;34289;48.572;13.378;2023-02-28T06:54:20;-0.40;99.90
48488;DHT22;34289;48.572;13.378;2023-02-28T06:56:46;0.70;99.90
48488;DHT22;34289;48.572;13.378;2023-02-28T06:59:12;2.10;99.90
48488;DHT22;34289;48.572;13.378;2023-02-28T07:01:38;3.60;99.90
48488;DHT22;34289;48.572;13.378;2023-02-28T07:04:06;4.40;99.90
48488;DHT22;34289;48.572;13.378;2023-02-28T07:06:32;5.60;97.80
48488;DHT22;34289;48.572;13.378;2023-02-28T07:08:58;6.70;97.20
48488;DHT22;34289;48.572;13.378;2023-02-28T07:11:26;6.40;95.40
48488;DHT22;34289;48.572;13.378;2023-02-28T07:13:53;6.10;94.80
48488;DHT22;34289;48.572;13.378;2023-02-28T07:16:19;6.00;94.50
48488;DHT22;34289;48.572;13.378;2023-02-28T07:18:45;5.50;95.20
48488;DHT22;34289;48.572;13.378;2023-02-28T07:21:11;5.70;95.50
48488;DHT22;34289;48.572;13.378;2023-02-28T07:23:37;6.90;94.90
48488;DHT22;34289;48.572;13.378;2023-02-28T07:26:04;8.60;93.10
48488;DHT22;34289;48.572;13.378;2023-02-28T07:28:30;9.00;90.20
48488;DHT22;34289;48.572;13.378;2023-02-28T07:30:56;8.90;89.00
48488;DHT22;34289;48.572;13.378;2023-02-28T07:33:21;7.10;91.50
48488;DHT22;34289;48.572;13.378;2023-02-28T07:35:47;6.10;92.70
48488;DHT22;34289;48.572;13.378;2023-02-28T07:38:13;7.10;92.00
48488;DHT22;34289;48.572;13.378;2023-02-28T07:40:39;8.70;90.50
48488;DHT22;34289;48.572;13.378;2023-02-28T07:43:05;8.00;90.40
48488;DHT22;34289;48.572;13.378;2023-02-28T07:45:31;8.40;90.20
48488;DHT22;34289;48.572;13.378;2023-02-28T07:48:00;7.30;91.00
48488;DHT22;34289;48.572;13.378;2023-02-28T07:50:26;6.40;91.10
48488;DHT22;34289;48.572;13.378;2023-02-28T07:52:56;6.30;93.20
48488;DHT22;34289;48.572;13.378;2023-02-28T07:55:22;7.70;91.60
48488;DHT22;34289;48.572;13.378;2023-02-28T07:57:48;8.00;89.40
48488;DHT22;34289;48.572;13.378;2023-02-28T08:00:13;7.50;90.20
48488;DHT22;34289;48.572;13.378;2023-02-28T08:02:42;6.40;91.00
48488;DHT22;34289;48.572;13.378;2023-02-28T08:05:08;6.60;91.50
48488;DHT22;34289;48.572;13.378;2023-02-28T08:07:33;8.50;90.40
48488;DHT22;34289;48.572;13.378;2023-02-28T08:09:59;8.10;90.10
48488;DHT22;34289;48.572;13.378;2023-02-28T08:12:25;7.40;90.70
48488;DHT22;34289;48.572;13.378;2023-02-28T08:14:51;8.50;91.10
48488;DHT22;34289;48.572;13.378;2023-02-28T08:17:17;8.20;89.30
48488;DHT22;34289;48.572;13.378;2023-02-28T08:19:45;7.90;90.40
48488;DHT22;34289;48.572;13.378;2023-02-28T08:22:11;8.00;90.90
48488;DHT22;34289;48.572;13.378;2023-02-28T08:24:37;8.80;89.90
48488;DHT22;34289;48.572;13.378;2023-02-28T08:27:02;10.60;86.10
48488;DHT22;34289;48.572;13.378;2023-02-28T08:29:28;12.40;80.80
48488;DHT22;34289;48.572;13.378;2023-02-28T08:31:55;12.40;78.30
48488;DHT22;34289;48.572;13.378;2023-02-28T08:34:21;11.40;80.00
48488;DHT22;34289;48.572;13.378;2023-02-28T08:36:46;10.80;82.10
48488;DHT22;34289;48.572;13.378;2023-02-28T08:39:12;9.70;83.30
48488;DHT22;34289;48.572;13.378;2023-02-28T08:41:38;10.70;81.30
48488;DHT22;34289;48.572;13.378;2023-02-28T08:44:04;10.50;79.50
48488;DHT22;34289;48.572;13.378;2023-02-28T08:46:29;9.80;82.90
48488;DHT22;34289;48.572;13.378;2023-02-28T08:48:56;9.50;84.50
48488;DHT22;34289;48.572;13.378;2023-02-28T08:51:25;9.20;84.90
48488;DHT22;34289;48.572;13.378;2023-02-28T08:53:57;9.60;83.40
48488;DHT22;34289;48.572;13.378;2023-02-28T08:56:23;9.20;83.90
48488;DHT22;34289;48.572;13.378;2023-02-28T08:58:50;8.40;86.10
48488;DHT22;34289;48.572;13.378;2023-02-28T09:01:21;8.50;86.30
48488;DHT22;34289;48.572;13.378;2023-02-28T09:03:49;10.70;83.30
48488;DHT22;34289;48.572;13.378;2023-02-28T09:06:16;12.70;78.00
48488;DHT22;34289;48.572;13.378;2023-02-28T09:08:43;10.70;80.80
48488;DHT22;34289;48.572;13.378;2023-02-28T09:11:09;11.50;81.70
48488;DHT22;34289;48.572;13.378;2023-02-28T09:13:35;11.50;78.30
48488;DHT22;34289;48.572;13.378;2023-02-28T09:16:03;12.20;80.30
48488;DHT22;34289;48.572;13.378;2023-02-28T09:18:30;12.90;76.90
48488;DHT22;34289;48.572;13.378;2023-02-28T09:20:56;12.10;75.00
48488;DHT22;34289;48.572;13.378;2023-02-28T09:23:23;11.20;77.30
48488;DHT22;34289;48.572;13.378;2023-02-28T09:25:51;11.90;77.40
48488;DHT22;34289;48.572;13.378;2023-02-28T09:28:18;12.70;75.90
48488;DHT22;34289;48.572;13.378;2023-02-28T09:30:45;12.30;75.90
48488;DHT22;34289;48.572;13.378;2023-02-28T09:33:12;11.50;75.90
48488;DHT22;34289;48.572;13.378;2023-02-28T09:35:37;12.80;77.20
48488;DHT22;34289;48.572;13.378;2023-02-28T09:38:03;13.40;72.90
48488;DHT22;34289;48.572;13.378;2023-02-28T09:40:30;12.90;73.60
48488;DHT22;34289;48.572;13.378;2023-02-28T09:42:57;12.30;77.40
48488;DHT22;34289;48.572;13.378;2023-02-28T09:45:35;12.20;76.40
48488;DHT22;34289;48.572;13.378;2023-02-28T09:48:14;12.70;77.10
48488;DHT22;34289;48.572;13.378;2023-02-28T09:50:52;13.50;74.50
48488;DHT22;34289;48.572;13.378;2023-02-28T09:53:47;14.50;70.80
48488;DHT22;34289;48.572;13.378;2023-02-28T09:56:27;14.50;72.30
48488;DHT22;34289;48.572;13.378;2023-02-28T09:59:18;14.30;72.60
48488;DHT22;34289;48.572;13.378;2023-02-28T10:01:58;12.30;75.90
48488;DHT22;34289;48.572;13.378;2023-02-28T10:04:52;12.20;76.80
48488;DHT22;34289;48.572;13.378;2023-02-28T10:10:54;13.10;76.10
48488;DHT22;34289;48.572;13.378;2023-02-28T10:13:02;13.20;74.70
48488;DHT22;34289;48.572;13.378;2023-02-28T10:15:31;12.80;73.20
48488;DHT22;34289;48.572;13.378;2023-02-28T10:18:04;12.20;75.50
48488;DHT22;34289;48.572;13.378;2023-02-28T10:20:33;13.20;77.20
48488;DHT22;34289;48.572;13.378;2023-02-28T10:23:17;13.10;75.00
48488;DHT22;34289;48.572;13.378;2023-02-28T10:25:53;13.50;72.20
48488;DHT22;34289;48.572;13.378;2023-02-28T10:28:20;12.80;75.00
48488;DHT22;34289;48.572;13.378;2023-02-28T10:30:51;12.60;75.60
48488;DHT22;34289;48.572;13.378;2023-02-28T10:33:28;13.20;75.20
48488;DHT22;34289;48.572;13.378;2023-02-28T10:35:54;13.60;73.50
48488;DHT22;34289;48.572;13.378;2023-02-28T10:38:26;11.70;76.70
48488;DHT22;34289;48.572;13.378;2023-02-28T10:41:02;11.70;77.10
48488;DHT22;34289;48.572;13.378;2023-02-28T10:43:28;12.30;75.70
48488;DHT22;34289;48.572;13.378;2023-02-28T10:56:02;10.50;80.70
48488;DHT22;34289;48.572;13.378;2023-02-28T10:59:22;11.30;78.70
48488;DHT22;34289;48.572;13.378;2023-02-28T11:03:58;10.00;79.40
48488;DHT22;34289;48.572;13.378;2023-02-28T11:06:29;10.70;81.40
48488;DHT22;34289;48.572;13.378;2023-02-28T11:08:57;9.90;81.90
48488;DHT22;34289;48.572;13.378;2023-02-28T11:11:26;10.20;83.10
48488;DHT22;34289;48.572;13.378;2023-02-28T11:14:02;9.80;81.90
48488;DHT22;34289;48.572;13.378;2023-02-28T11:16:36;9.40;80.80
48488;DHT22;34289;48.572;13.378;2023-02-28T11:19:04;8.50;86.20
48488;DHT22;34289;48.572;13.378;2023-02-28T11:21:36;8.20;86.00
48488;DHT22;34289;48.572;13.378;2023-02-28T11:24:12;8.00;88.00
48488;DHT22;34289;48.572;13.378;2023-02-28T11:26:45;7.20;90.60
48488;DHT22;34289;48.572;13.378;2023-02-28T11:29:18;7.50;90.50
48488;DHT22;34289;48.572;13.378;2023-02-28T11:34:29;7.10;90.60
48488;DHT22;34289;48.572;13.378;2023-02-28T11:36:57;6.60;91.00
48488;DHT22;34289;48.572;13.378;2023-02-28T11:39:24;7.20;93.00
48488;DHT22;34289;48.572;13.378;2023-02-28T11:42:16;7.00;91.10
48488;DHT22;34289;48.572;13.378;2023-02-28T12:06:20;6.90;94.40
48488;DHT22;34289;48.572;13.378;2023-02-28T12:09:12;7.00;93.80
48488;DHT22;34289;48.572;13.378;2023-02-28T12:17:32;6.20;95.00
48488;DHT22;34289;48.572;13.378;2023-02-28T12:26:20;6.90;94.00
48488;DHT22;34289;48.572;13.378;2023-02-28T12:28:57;7.00;93.10
48488;DHT22;34289;48.572;13.378;2023-02-28T12:31:30;6.90;92.50
48488;DHT22;34289;48.572;13.378;2023-02-28T12:34:11;7.00;94.10
48488;DHT22;34289;48.572;13.378;2023-02-28T12:36:39;6.90;92.40
48488;DHT22;34289;48.572;13.378;2023-02-28T12:39:29;6.90;93.10
48488;DHT22;34289;48.572;13.378;2023-02-28T12:42:05;6.90;94.10
48488;DHT22;34289;48.572;13.378;2023-02-28T12:44:46;7.10;93.20
48488;DHT22;34289;48.572;13.378;2023-02-28T12:47:16;7.60;93.20
48488;DHT22;34289;48.572;13.378;2023-02-28T12:49:50;6.30;92.90
48488;DHT22;34289;48.572;13.378;2023-02-28T12:52:46;7.00;94.70
48488;DHT22;34289;48.572;13.378;2023-02-28T12:57:57;6.40;94.90
48488;DHT22;34289;48.572;13.378;2023-02-28T13:00:28;6.70;96.20
48488;DHT22;34289;48.572;13.378;2023-02-28T13:11:52;6.70;93.40
48488;DHT22;34289;48.572;13.378;2023-02-28T13:14:39;6.60;94.70
48488;DHT22;34289;48.572;13.378;2023-02-28T13:19:42;6.60;94.10
48488;DHT22;34289;48.572;13.378;2023-02-28T13:25:49;7.00;96.10
48488;DHT22;34289;48.572;13.378;2023-02-28T13:31:16;6.70;94.70
48488;DHT22;34289;48.572;13.378;2023-02-28T13:38:44;6.70;95.00
48488;DHT22;34289;48.572;13.378;2023-02-28T13:44:14;6.80;94.60
48488;DHT22;34289;48.572;13.378;2023-02-28T13:49:19;6.50;96.50
48488;DHT22;34289;48.572;13.378;2023-02-28T13:51:47;7.60;95.30
48488;DHT22;34289;48.572;13.378;2023-02-28T14:07:31;7.20;96.80
48488;DHT22;34289;48.572;13.378;2023-02-28T14:10:02;7.10;95.90
48488;DHT22;34289;48.572;13.378;2023-02-28T14:17:55;6.20;95.80
48488;DHT22;34289;48.572;13.378;2023-02-28T14:20:23;6.80;96.20
48488;DHT22;34289;48.572;13.378;2023-02-28T14:25:35;6.00;96.00
48488;DHT22;34289;48.572;13.378;2023-02-28T14:30:52;5.40;97.80
48488;DHT22;34289;48.572;13.378;2023-02-28T14:36:27;5.40;97.70
48488;DHT22;34289;48.572;13.378;2023-02-28T14:39:22;6.40;98.60
48488;DHT22;34289;48.572;13.378;2023-02-28T14:41:46;5.60;98.10
48488;DHT22;34289;48.572;13.378;2023-02-28T14:44:25;5.70;98.00
48488;DHT22;34289;48.572;13.378;2023-02-28T14:46:54;5.10;98.10
48488;DHT22;34289;48.572;13.378;2023-02-28T14:49:28;4.80;99.40
48488;DHT22;34289;48.572;13.378;2023-02-28T14:54:36;4.60;99.70
48488;DHT22;34289;48.572;13.378;2023-02-28T14:57:02;4.50;99.70
48488;DHT22;34289;48.572;13.378;2023-02-28T14:59:32;4.50;99.90
48488;DHT22;34289;48.572;13.378;2023-02-28T15:02:21;4.60;99.90
48488;DHT22;34289;48.572;13.378;2023-02-28T15:05:02;4.60;99.90
48488;DHT22;34289;48.572;13.378;2023-02-28T15:07:35;4.60;99.90
48488;DHT22;34289;48.572;13.378;2023-02-28T15:10:18;4.60;99.90
48488;DHT22;34289;48.572;13.378;2023-02-28T15:13:06;4.40;99.90
48488;DHT22;34289;48.572;13.378;2023-02-28T15:16:04;4.40;99.90
48488;DHT22;34289;48.572;13.378;2023-02-28T15:18:48;4.40;99.90
48488;DHT22;34289;48.572;13.378;2023-02-28T15:21:17;4.50;99.90
48488;DHT22;34289;48.572;13.378;2023-02-28T15:23:47;5.30;99.90
48488;DHT22;34289;48.572;13.378;2023-02-28T15:26:21;4.10;99.90
48488;DHT22;34289;48.572;13.378;2023-02-28T15:28:51;4.10;99.90
48488;DHT22;34289;48.572;13.378;2023-02-28T15:31:28;4.20;99.90
48488;DHT22;34289;48.572;13.378;2023-02-28T15:33:56;4.40;99.90
48488;DHT22;34289;48.572;13.378;2023-02-28T15:36:26;4.50;99.90
48488;DHT22;34289;48.572;13.378;2023-02-28T15:38:53;4.30;99.90
48488;DHT22;34289;48.572;13.378;2023-02-28T15:41:38;4.50;99.90
48488;DHT22;34289;48.572;13.378;2023-02-28T15:44:16;4.50;99.90
48488;DHT22;34289;48.572;13.378;2023-02-28T15:46:53;4.40;99.90
48488;DHT22;34289;48.572;13.378;2023-02-28T15:49:21;4.30;99.90
48488;DHT22;34289;48.572;13.378;2023-02-28T15:51:49;4.20;99.90
48488;DHT22;34289;48.572;13.378;2023-02-28T15:54:22;4.10;99.90
48488;DHT22;34289;48.572;13.378;2023-02-28T15:56:52;4.10;99.90
48488;DHT22;34289;48.572;13.378;2023-02-28T15:59:28;3.90;99.90
48488;DHT22;34289;48.572;13.378;2023-02-28T16:04:36;3.60;99.90
48488;DHT22;34289;48.572;13.378;2023-02-28T16:07:12;3.50;99.90
48488;DHT22;34289;48.572;13.378;2023-02-28T16:09:37;3.40;99.90
48488;DHT22;34289;48.572;13.378;2023-02-28T16:12:04;3.40;99.90
48488;DHT22;34289;48.572;13.378;2023-02-28T16:14:30;3.40;99.90
48488;DHT22;34289;48.572;13.378;2023-02-28T16:17:05;3.40;99.90
48488;DHT22;34289;48.572;13.378;2023-02-28T16:19:32;3.40;99.90
48488;DHT22;34289;48.572;13.378;2023-02-28T16:21:57;3.40;99.90
48488;DHT22;34289;48.572;13.378;2023-02-28T16:24:23;3.40;99.90
48488;DHT22;34289;48.572;13.378;2023-02-28T16:26:51;3.30;99.90
48488;DHT22;34289;48.572;13.378;2023-02-28T16:29:29;3.30;99.90
48488;DHT22;34289;48.572;13.378;2023-02-28T16:31:57;3.30;99.90
48488;DHT22;34289;48.572;13.378;2023-02-28T16:34:23;3.30;99.90
48488;DHT22;34289;48.572;13.378;2023-02-28T16:36:50;5.30;99.90
48488;DHT22;34289;48.572;13.378;2023-02-28T16:39:16;3.20;99.90
48488;DHT22;34289;48.572;13.378;2023-02-28T16:41:45;3.90;99.90
48488;DHT22;34289;48.572;13.378;2023-02-28T16:44:21;4.50;99.90
48488;DHT22;34289;48.572;13.378;2023-02-28T16:46:49;4.90;99.90
48488;DHT22;34289;48.572;13.378;2023-02-28T16:49:14;3.10;99.90
48488;DHT22;34289;48.572;13.378;2023-02-28T16:51:40;4.80;99.90
48488;DHT22;34289;48.572;13.378;2023-02-28T16:54:05;3.10;99.90
48488;DHT22;34289;48.572;13.378;2023-02-28T16:56:31;3.70;99.90
48488;DHT22;34289;48.572;13.378;2023-02-28T16:59:01;4.10;99.90
48488;DHT22;34289;48.572;13.378;2023-02-28T17:01:27;3.30;99.90
48488;DHT22;34289;48.572;13.378;2023-02-28T17:03:53;3.20;99.90
48488;DHT22;34289;48.572;13.378;2023-02-28T17:06:29;3.50;99.90
48488;DHT22;34289;48.572;13.378;2023-02-28T17:08:55;3.80;99.90
48488;DHT22;34289;48.572;13.378;2023-02-28T17:11:22;4.40;99.90
48488;DHT22;34289;48.572;13.378;2023-02-28T17:13:48;3.00;99.90
48488;DHT22;34289;48.572;13.378;2023-02-28T17:16:25;2.90;99.90
48488;DHT22;34289;48.572;13.378;2023-02-28T17:18:53;2.90;99.90
48488;DHT22;34289;48.572;13.378;2023-02-28T17:21:19;2.90;99.90
48488;DHT22;34289;48.572;13.378;2023-02-28T17:23:45;3.90;99.90
48488;DHT22;34289;48.572;13.378;2023-02-28T17:26:18;3.00;99.90
48488;DHT22;34289;48.572;13.378;2023-02-28T17:28:48;3.00;99.90
48488;DHT22;34289;48.572;13.378;2023-02-28T17:31:14;2.90;99.90
48488;DHT22;34289;48.572;13.378;2023-02-28T17:33:40;3.20;99.90
48488;DHT22;34289;48.572;13.378;2023-02-28T17:36:09;4.60;99.90
48488;DHT22;34289;48.572;13.378;2023-02-28T17:38:35;2.90;99.90
48488;DHT22;34289;48.572;13.378;2023-02-28T17:41:01;3.00;99.90
48488;DHT22;34289;48.572;13.378;2023-02-28T17:43:27;4.60;99.90
48488;DHT22;34289;48.572;13.378;2023-02-28T17:45:53;3.00;99.90
48488;DHT22;34289;48.572;13.378;2023-02-28T17:48:18;3.00;99.90
48488;DHT22;34289;48.572;13.378;2023-02-28T17:50:44;3.00;99.90
48488;DHT22;34289;48.572;13.378;2023-02-28T17:53:10;3.00;99.90
48488;DHT22;34289;48.572;13.378;2023-02-28T17:55:36;3.00;99.90
48488;DHT22;34289;48.572;13.378;2023-02-28T17:58:02;3.40;99.90
48488;DHT22;34289;48.572;13.378;2023-02-28T18:00:28;3.00;99.90
48488;DHT22;34289;48.572;13.378;2023-02-28T18:02:54;3.00;99.90